Nimbus Weather Services

Informe meteorológico para Carrasco, Uruguay. El informe se hizo hace 32 minutos, a las 22:00 UTC. El viento soplaba a una velocidad de 5.1 m/s (11.5 millas por hora) del norte (350°). La temperatura era 27 °C (81 °F), con un punto de rocío de 10 °C (50 °F). La sensación térmica era de 27 °C (80 °F). La presión atmosférica era 1012 hPa (29.88 inHg). Había una humedad relativa del 34.4%. Cielo: sin nubes por debajo de 1500 metros (5000 pies) y sin presencia de cumulusnimbos. En aquel momento la visibilidad global era mayor de 10 kilómetros (6.2 millas).

La clave METAR es: SUMU 202200Z 35010KT CAVOK 27/10 Q1012 NOSIG

Consulta realizada el Martes 20 de Noviembre de 2018 19:32. Tiempo usado para generar esta pagina:6,090 ms.